sensor_id;sensor_type;location;lat;lon;timestamp;pressure;altitude;pressure_sealevel;temperature;humidity
40948;BME280;49382;-25.924;28.194;2023-07-29T00:01:01;85343.56;;;14.77;31.76
40948;BME280;49382;-25.924;28.194;2023-07-29T00:03:27;85340.01;;;14.35;32.17
40948;BME280;49382;-25.924;28.194;2023-07-29T00:05:53;85337.68;;;14.54;31.98
40948;BME280;49382;-25.924;28.194;2023-07-29T00:08:18;85334.08;;;13.70;32.97
40948;BME280;49382;-25.924;28.194;2023-07-29T00:10:44;85335.57;;;13.99;32.79
40948;BME280;49382;-25.924;28.194;2023-07-29T00:13:09;85333.98;;;13.60;33.86
40948;BME280;49382;-25.924;28.194;2023-07-29T00:15:35;85329.53;;;14.18;32.39
40948;BME280;49382;-25.924;28.194;2023-07-29T00:18:00;85330.80;;;14.20;31.84
40948;BME280;49382;-25.924;28.194;2023-07-29T00:20:25;85332.14;;;14.37;31.20
40948;BME280;49382;-25.924;28.194;2023-07-29T00:22:50;85327.10;;;15.20;29.66
40948;BME280;49382;-25.924;28.194;2023-07-29T00:25:16;85326.39;;;15.31;29.03
40948;BME280;49382;-25.924;28.194;2023-07-29T00:27:42;85323.53;;;15.24;29.76
40948;BME280;49382;-25.924;28.194;2023-07-29T00:30:08;85324.95;;;14.85;29.85
40948;BME280;49382;-25.924;28.194;2023-07-29T00:32:32;85322.26;;;15.11;30.67
40948;BME280;49382;-25.924;28.194;2023-07-29T00:34:57;85323.78;;;14.38;30.36
40948;BME280;49382;-25.924;28.194;2023-07-29T00:37:23;85318.73;;;13.97;30.23
40948;BME280;49382;-25.924;28.194;2023-07-29T00:39:48;85319.51;;;14.47;29.67
40948;BME280;49382;-25.924;28.194;2023-07-29T00:42:13;85319.18;;;14.89;29.06
40948;BME280;49382;-25.924;28.194;2023-07-29T00:44:38;85321.26;;;15.45;28.87
40948;BME280;49382;-25.924;28.194;2023-07-29T00:47:05;85321.12;;;15.14;28.63
40948;BME280;49382;-25.924;28.194;2023-07-29T00:49:28;85321.10;;;14.66;28.71
40948;BME280;49382;-25.924;28.194;2023-07-29T00:51:53;85320.44;;;15.64;27.61
40948;BME280;49382;-25.924;28.194;2023-07-29T00:54:18;85316.00;;;15.56;27.73
40948;BME280;49382;-25.924;28.194;2023-07-29T00:56:43;85313.73;;;16.21;26.90
40948;BME280;49382;-25.924;28.194;2023-07-29T00:59:09;85315.28;;;15.06;27.75
40948;BME280;49382;-25.924;28.194;2023-07-29T01:01:34;85313.52;;;15.82;27.87
40948;BME280;49382;-25.924;28.194;2023-07-29T01:03:59;85307.95;;;14.40;30.22
40948;BME280;49382;-25.924;28.194;2023-07-29T01:06:33;85311.18;;;14.46;29.74
40948;BME280;49382;-25.924;28.194;2023-07-29T01:08:56;85306.50;;;14.47;29.63
40948;BME280;49382;-25.924;28.194;2023-07-29T01:11:25;85309.80;;;14.65;29.25
40948;BME280;49382;-25.924;28.194;2023-07-29T01:13:45;85307.57;;;14.91;28.20
40948;BME280;49382;-25.924;28.194;2023-07-29T01:16:11;85306.45;;;15.02;27.98
40948;BME280;49382;-25.924;28.194;2023-07-29T01:18:32;85304.35;;;15.33;29.11
40948;BME280;49382;-25.924;28.194;2023-07-29T01:20:59;85309.47;;;15.40;27.33
40948;BME280;49382;-25.924;28.194;2023-07-29T01:23:24;85313.10;;;15.38;27.30
40948;BME280;49382;-25.924;28.194;2023-07-29T01:25:46;85312.23;;;15.51;27.91
40948;BME280;49382;-25.924;28.194;2023-07-29T01:28:11;85312.74;;;14.88;28.59
40948;BME280;49382;-25.924;28.194;2023-07-29T01:30:40;85314.43;;;14.11;29.61
40948;BME280;49382;-25.924;28.194;2023-07-29T01:33:07;85308.85;;;13.59;30.53
40948;BME280;49382;-25.924;28.194;2023-07-29T01:35:31;85307.63;;;14.24;29.93
40948;BME280;49382;-25.924;28.194;2023-07-29T01:37:55;85307.18;;;14.16;29.87
40948;BME280;49382;-25.924;28.194;2023-07-29T01:40:18;85303.35;;;13.65;30.56
40948;BME280;49382;-25.924;28.194;2023-07-29T01:42:43;85303.49;;;14.55;30.08
40948;BME280;49382;-25.924;28.194;2023-07-29T01:45:09;85299.37;;;14.36;30.37
40948;BME280;49382;-25.924;28.194;2023-07-29T01:47:33;85300.15;;;13.97;30.82
40948;BME280;49382;-25.924;28.194;2023-07-29T01:49:58;85296.32;;;14.44;29.78
40948;BME280;49382;-25.924;28.194;2023-07-29T01:52:24;85292.41;;;13.92;30.80
40948;BME280;49382;-25.924;28.194;2023-07-29T01:54:48;85292.55;;;13.78;30.72
40948;BME280;49382;-25.924;28.194;2023-07-29T01:57:14;85295.48;;;13.76;31.84
40948;BME280;49382;-25.924;28.194;2023-07-29T01:59:39;85297.37;;;14.46;29.71
40948;BME280;49382;-25.924;28.194;2023-07-29T02:02:05;85295.27;;;14.34;30.01
40948;BME280;49382;-25.924;28.194;2023-07-29T02:04:30;85292.35;;;14.00;31.31
40948;BME280;49382;-25.924;28.194;2023-07-29T02:06:55;85290.33;;;13.60;31.40
40948;BME280;49382;-25.924;28.194;2023-07-29T02:09:20;85287.32;;;14.07;29.75
40948;BME280;49382;-25.924;28.194;2023-07-29T02:11:46;85289.56;;;13.70;30.80
40948;BME280;49382;-25.924;28.194;2023-07-29T02:14:11;85291.72;;;13.36;30.86
40948;BME280;49382;-25.924;28.194;2023-07-29T02:16:36;85291.91;;;13.70;30.56
40948;BME280;49382;-25.924;28.194;2023-07-29T02:19:01;85295.49;;;12.87;31.81
40948;BME280;49382;-25.924;28.194;2023-07-29T02:21:27;85290.86;;;13.32;31.13
40948;BME280;49382;-25.924;28.194;2023-07-29T02:23:52;85292.52;;;13.54;31.72
40948;BME280;49382;-25.924;28.194;2023-07-29T02:26:17;85292.59;;;13.68;30.61
40948;BME280;49382;-25.924;28.194;2023-07-29T02:28:42;85292.20;;;14.31;30.34
40948;BME280;49382;-25.924;28.194;2023-07-29T02:31:14;85291.74;;;13.94;30.99
40948;BME280;49382;-25.924;28.194;2023-07-29T02:33:33;85292.33;;;13.62;31.48
40948;BME280;49382;-25.924;28.194;2023-07-29T02:35:58;85294.71;;;14.06;31.30
40948;BME280;49382;-25.924;28.194;2023-07-29T02:38:23;85293.26;;;14.08;31.78
40948;BME280;49382;-25.924;28.194;2023-07-29T02:40:49;85294.88;;;13.90;31.43
40948;BME280;49382;-25.924;28.194;2023-07-29T02:43:14;85299.68;;;14.56;30.52
40948;BME280;49382;-25.924;28.194;2023-07-29T02:45:39;85299.77;;;14.60;29.66
40948;BME280;49382;-25.924;28.194;2023-07-29T02:48:05;85294.96;;;15.14;28.79
40948;BME280;49382;-25.924;28.194;2023-07-29T02:50:30;85296.94;;;14.82;31.02
40948;BME280;49382;-25.924;28.194;2023-07-29T02:52:56;85294.74;;;14.99;29.77
40948;BME280;49382;-25.924;28.194;2023-07-29T02:55:21;85294.70;;;15.51;30.64
40948;BME280;49382;-25.924;28.194;2023-07-29T02:57:46;85301.41;;;14.43;32.06
40948;BME280;49382;-25.924;28.194;2023-07-29T03:00:12;85301.00;;;14.57;32.35
40948;BME280;49382;-25.924;28.194;2023-07-29T03:02:36;85301.07;;;14.99;31.16
40948;BME280;49382;-25.924;28.194;2023-07-29T03:05:01;85297.35;;;13.94;32.49
40948;BME280;49382;-25.924;28.194;2023-07-29T03:07:26;85297.26;;;14.44;31.55
40948;BME280;49382;-25.924;28.194;2023-07-29T03:09:51;85297.28;;;14.73;30.65
40948;BME280;49382;-25.924;28.194;2023-07-29T03:12:16;85295.99;;;14.40;30.72
40948;BME280;49382;-25.924;28.194;2023-07-29T03:14:42;85298.94;;;14.37;30.80
40948;BME280;49382;-25.924;28.194;2023-07-29T03:17:07;85293.97;;;14.84;30.37
40948;BME280;49382;-25.924;28.194;2023-07-29T03:19:33;85289.80;;;15.08;29.77
40948;BME280;49382;-25.924;28.194;2023-07-29T03:21:58;85292.30;;;15.93;28.70
40948;BME280;49382;-25.924;28.194;2023-07-29T03:24:23;85292.76;;;14.82;30.82
40948;BME280;49382;-25.924;28.194;2023-07-29T03:26:48;85292.27;;;13.63;31.30
40948;BME280;49382;-25.924;28.194;2023-07-29T03:29:14;85295.64;;;14.76;30.06
40948;BME280;49382;-25.924;28.194;2023-07-29T03:31:39;85295.80;;;14.69;30.58
40948;BME280;49382;-25.924;28.194;2023-07-29T03:34:04;85294.89;;;15.48;29.43
40948;BME280;49382;-25.924;28.194;2023-07-29T03:36:29;85292.45;;;15.70;29.11
40948;BME280;49382;-25.924;28.194;2023-07-29T03:38:54;85291.82;;;14.52;30.54
40948;BME280;49382;-25.924;28.194;2023-07-29T03:41:19;85296.57;;;14.59;30.83
40948;BME280;49382;-25.924;28.194;2023-07-29T03:43:44;85296.66;;;15.08;30.60
40948;BME280;49382;-25.924;28.194;2023-07-29T03:46:10;85296.88;;;15.12;31.15
40948;BME280;49382;-25.924;28.194;2023-07-29T03:48:35;85297.98;;;14.88;30.98
40948;BME280;49382;-25.924;28.194;2023-07-29T03:51:00;85297.39;;;15.33;29.63
40948;BME280;49382;-25.924;28.194;2023-07-29T03:53:25;85306.32;;;15.41;29.41
40948;BME280;49382;-25.924;28.194;2023-07-29T03:55:50;85307.72;;;14.92;30.13
40948;BME280;49382;-25.924;28.194;2023-07-29T03:58:15;85309.51;;;14.47;30.53
40948;BME280;49382;-25.924;28.194;2023-07-29T04:00:40;85310.06;;;15.49;29.67
40948;BME280;49382;-25.924;28.194;2023-07-29T04:03:05;85309.24;;;15.49;29.35
40948;BME280;49382;-25.924;28.194;2023-07-29T04:05:31;85308.46;;;15.49;29.35
40948;BME280;49382;-25.924;28.194;2023-07-29T04:07:57;85313.36;;;15.37;29.36
40948;BME280;49382;-25.924;28.194;2023-07-29T04:10:22;85314.64;;;15.53;29.20
40948;BME280;49382;-25.924;28.194;2023-07-29T04:12:47;85320.85;;;15.20;29.55
40948;BME280;49382;-25.924;28.194;2023-07-29T04:15:12;85318.46;;;16.05;28.68
40948;BME280;49382;-25.924;28.194;2023-07-29T04:17:37;85318.71;;;15.88;29.10
40948;BME280;49382;-25.924;28.194;2023-07-29T04:20:03;85319.08;;;15.91;29.16
40948;BME280;49382;-25.924;28.194;2023-07-29T04:22:27;85316.60;;;15.65;29.60
40948;BME280;49382;-25.924;28.194;2023-07-29T04:24:53;85315.11;;;15.67;29.54
40948;BME280;49382;-25.924;28.194;2023-07-29T04:27:18;85313.74;;;15.13;29.86
40948;BME280;49382;-25.924;28.194;2023-07-29T04:29:43;85313.38;;;15.54;29.72
40948;BME280;49382;-25.924;28.194;2023-07-29T04:32:08;85313.77;;;16.11;29.16
40948;BME280;49382;-25.924;28.194;2023-07-29T04:34:33;85305.20;;;15.40;30.47
40948;BME280;49382;-25.924;28.194;2023-07-29T04:36:58;85308.95;;;15.19;30.79
40948;BME280;49382;-25.924;28.194;2023-07-29T04:39:23;85309.79;;;15.03;30.69
40948;BME280;49382;-25.924;28.194;2023-07-29T04:41:49;85306.96;;;15.50;30.17
40948;BME280;49382;-25.924;28.194;2023-07-29T04:44:14;85302.01;;;15.63;30.34
40948;BME280;49382;-25.924;28.194;2023-07-29T04:46:39;85299.63;;;15.35;30.35
40948;BME280;49382;-25.924;28.194;2023-07-29T04:49:04;85296.22;;;15.08;30.44
40948;BME280;49382;-25.924;28.194;2023-07-29T04:51:29;85298.42;;;15.94;30.05
40948;BME280;49382;-25.924;28.194;2023-07-29T04:53:54;85301.79;;;14.69;31.01
40948;BME280;49382;-25.924;28.194;2023-07-29T04:56:20;85303.40;;;15.40;30.37
40948;BME280;49382;-25.924;28.194;2023-07-29T04:58:45;85306.05;;;16.27;29.54
40948;BME280;49382;-25.924;28.194;2023-07-29T05:01:11;85303.47;;;15.54;30.18
40948;BME280;49382;-25.924;28.194;2023-07-29T05:03:36;85301.88;;;15.47;30.38
40948;BME280;49382;-25.924;28.194;2023-07-29T05:06:01;85298.85;;;15.07;30.92
40948;BME280;49382;-25.924;28.194;2023-07-29T05:08:26;85299.46;;;14.34;31.67
40948;BME280;49382;-25.924;28.194;2023-07-29T05:10:52;85301.65;;;15.25;30.85
40948;BME280;49382;-25.924;28.194;2023-07-29T05:13:17;85297.78;;;14.48;31.52
40948;BME280;49382;-25.924;28.194;2023-07-29T05:15:42;85296.49;;;15.60;30.81
40948;BME280;49382;-25.924;28.194;2023-07-29T05:18:07;85289.31;;;15.21;31.21
40948;BME280;49382;-25.924;28.194;2023-07-29T05:20:33;85290.88;;;15.17;31.62
40948;BME280;49382;-25.924;28.194;2023-07-29T05:22:58;85290.68;;;15.64;30.59
40948;BME280;49382;-25.924;28.194;2023-07-29T05:25:23;85289.38;;;16.04;30.32
40948;BME280;49382;-25.924;28.194;2023-07-29T05:27:48;85284.21;;;15.60;30.86
40948;BME280;49382;-25.924;28.194;2023-07-29T05:30:13;85284.61;;;15.55;31.15
40948;BME280;49382;-25.924;28.194;2023-07-29T05:32:39;85283.64;;;14.89;31.72
40948;BME280;49382;-25.924;28.194;2023-07-29T05:35:05;85278.48;;;14.84;31.81
40948;BME280;49382;-25.924;28.194;2023-07-29T05:37:30;85279.18;;;15.78;31.43
40948;BME280;49382;-25.924;28.194;2023-07-29T05:39:56;85275.11;;;16.33;30.65
40948;BME280;49382;-25.924;28.194;2023-07-29T05:42:21;85277.74;;;16.54;31.61
40948;BME280;49382;-25.924;28.194;2023-07-29T05:44:47;85275.07;;;15.77;31.52
40948;BME280;49382;-25.924;28.194;2023-07-29T05:47:12;85276.03;;;16.35;31.35
40948;BME280;49382;-25.924;28.194;2023-07-29T05:49:37;85273.54;;;16.84;30.77
40948;BME280;49382;-25.924;28.194;2023-07-29T05:52:02;85277.96;;;16.44;32.12
40948;BME280;49382;-25.924;28.194;2023-07-29T05:54:27;85278.57;;;16.31;32.04
40948;BME280;49382;-25.924;28.194;2023-07-29T05:56:52;85276.47;;;16.81;31.04
40948;BME280;49382;-25.924;28.194;2023-07-29T05:59:17;85286.09;;;16.61;30.94
40948;BME280;49382;-25.924;28.194;2023-07-29T06:01:42;85280.95;;;17.75;30.08
40948;BME280;49382;-25.924;28.194;2023-07-29T06:04:07;85284.29;;;17.36;30.28
40948;BME280;49382;-25.924;28.194;2023-07-29T06:06:33;85288.28;;;17.46;30.29
40948;BME280;49382;-25.924;28.194;2023-07-29T06:08:58;85293.18;;;16.60;31.01
40948;BME280;49382;-25.924;28.194;2023-07-29T06:11:23;85293.19;;;17.62;30.06
40948;BME280;49382;-25.924;28.194;2023-07-29T06:13:48;85289.97;;;17.15;29.98
40948;BME280;49382;-25.924;28.194;2023-07-29T06:16:13;85296.03;;;17.18;30.20
40948;BME280;49382;-25.924;28.194;2023-07-29T06:18:38;85294.80;;;17.33;31.17
40948;BME280;49382;-25.924;28.194;2023-07-29T06:21:03;85288.31;;;17.77;29.50
40948;BME280;49382;-25.924;28.194;2023-07-29T06:23:29;85288.80;;;17.36;29.94
40948;BME280;49382;-25.924;28.194;2023-07-29T06:25:54;85295.48;;;17.92;28.98
40948;BME280;49382;-25.924;28.194;2023-07-29T06:28:20;85299.35;;;18.23;28.80
40948;BME280;49382;-25.924;28.194;2023-07-29T06:30:46;85301.15;;;18.71;30.01
40948;BME280;49382;-25.924;28.194;2023-07-29T06:33:11;85303.79;;;18.43;28.51
40948;BME280;49382;-25.924;28.194;2023-07-29T06:35:36;85304.87;;;18.10;28.73
40948;BME280;49382;-25.924;28.194;2023-07-29T06:38:01;85310.38;;;18.21;27.83
40948;BME280;49382;-25.924;28.194;2023-07-29T06:40:26;85309.75;;;18.26;27.59
40948;BME280;49382;-25.924;28.194;2023-07-29T06:42:51;85306.77;;;17.98;27.84
40948;BME280;49382;-25.924;28.194;2023-07-29T06:45:17;85312.03;;;18.55;27.32
40948;BME280;49382;-25.924;28.194;2023-07-29T06:47:42;85307.51;;;18.97;27.06
40948;BME280;49382;-25.924;28.194;2023-07-29T06:50:07;85307.65;;;18.10;27.75
40948;BME280;49382;-25.924;28.194;2023-07-29T06:52:32;85310.63;;;19.25;26.54
40948;BME280;49382;-25.924;28.194;2023-07-29T06:54:57;85314.47;;;19.83;25.74
40948;BME280;49382;-25.924;28.194;2023-07-29T06:57:22;85309.73;;;19.69;25.82
40948;BME280;49382;-25.924;28.194;2023-07-29T06:59:47;85321.43;;;23.54;22.28
40948;BME280;49382;-25.924;28.194;2023-07-29T07:02:12;85318.10;;;26.76;19.30
40948;BME280;49382;-25.924;28.194;2023-07-29T07:04:37;85311.99;;;28.03;17.63
40948;BME280;49382;-25.924;28.194;2023-07-29T07:07:03;85319.24;;;29.95;15.88
40948;BME280;49382;-25.924;28.194;2023-07-29T07:09:29;85314.86;;;33.10;13.71
40948;BME280;49382;-25.924;28.194;2023-07-29T07:11:54;85316.32;;;32.56;13.49
40948;BME280;49382;-25.924;28.194;2023-07-29T07:14:20;85315.73;;;31.94;13.25
40948;BME280;49382;-25.924;28.194;2023-07-29T07:16:46;85318.92;;;30.96;13.39
40948;BME280;49382;-25.924;28.194;2023-07-29T07:19:12;85322.59;;;34.30;11.82
40948;BME280;49382;-25.924;28.194;2023-07-29T07:21:37;85319.59;;;34.56;11.33
40948;BME280;49382;-25.924;28.194;2023-07-29T07:24:02;85326.78;;;35.38;10.69
40948;BME280;49382;-25.924;28.194;2023-07-29T07:26:28;85326.15;;;33.39;11.39
40948;BME280;49382;-25.924;28.194;2023-07-29T07:28:54;85323.39;;;35.77;10.59
40948;BME280;49382;-25.924;28.194;2023-07-29T07:31:20;85323.43;;;35.63;10.19
40948;BME280;49382;-25.924;28.194;2023-07-29T07:33:45;85316.26;;;34.98;10.27
40948;BME280;49382;-25.924;28.194;2023-07-29T07:36:11;85313.31;;;35.74;10.25
40948;BME280;49382;-25.924;28.194;2023-07-29T07:38:36;85311.60;;;35.99;10.04
40948;BME280;49382;-25.924;28.194;2023-07-29T07:41:02;85306.93;;;37.56;9.11
40948;BME280;49382;-25.924;28.194;2023-07-29T07:43:28;85304.44;;;36.44;9.71
40948;BME280;49382;-25.924;28.194;2023-07-29T07:45:59;85301.31;;;36.51;9.79
40948;BME280;49382;-25.924;28.194;2023-07-29T07:48:19;85301.12;;;35.39;10.29
40948;BME280;49382;-25.924;28.194;2023-07-29T07:50:45;85302.74;;;36.35;9.43
40948;BME280;49382;-25.924;28.194;2023-07-29T07:53:10;85297.51;;;35.53;9.57
40948;BME280;49382;-25.924;28.194;2023-07-29T07:55:36;85294.51;;;34.65;10.54
40948;BME280;49382;-25.924;28.194;2023-07-29T07:58:02;85288.70;;;32.02;11.25
40948;BME280;49382;-25.924;28.194;2023-07-29T08:00:27;85283.62;;;32.63;11.03
40948;BME280;49382;-25.924;28.194;2023-07-29T08:02:53;85280.35;;;33.04;11.31
40948;BME280;49382;-25.924;28.194;2023-07-29T08:05:19;85269.85;;;30.80;12.44
40948;BME280;49382;-25.924;28.194;2023-07-29T08:07:44;85268.67;;;31.57;12.46
40948;BME280;49382;-25.924;28.194;2023-07-29T08:10:10;85260.48;;;30.88;12.06
40948;BME280;49382;-25.924;28.194;2023-07-29T08:12:36;85255.53;;;31.58;11.89
40948;BME280;49382;-25.924;28.194;2023-07-29T08:15:01;85251.85;;;29.54;12.90
40948;BME280;49382;-25.924;28.194;2023-07-29T08:17:27;85240.89;;;29.17;13.10
40948;BME280;49382;-25.924;28.194;2023-07-29T08:19:53;85231.71;;;27.27;14.44
40948;BME280;49382;-25.924;28.194;2023-07-29T08:22:18;85234.56;;;27.97;14.22
40948;BME280;49382;-25.924;28.194;2023-07-29T08:24:44;85230.35;;;28.45;14.66
40948;BME280;49382;-25.924;28.194;2023-07-29T08:27:10;85227.13;;;29.46;13.21
40948;BME280;49382;-25.924;28.194;2023-07-29T08:29:36;85229.69;;;28.62;14.10
40948;BME280;49382;-25.924;28.194;2023-07-29T08:32:01;85223.09;;;27.86;14.13
40948;BME280;49382;-25.924;28.194;2023-07-29T08:34:26;85216.42;;;27.80;14.49
40948;BME280;49382;-25.924;28.194;2023-07-29T08:36:52;85218.52;;;28.03;14.59
40948;BME280;49382;-25.924;28.194;2023-07-29T08:39:18;85212.14;;;27.08;15.39
40948;BME280;49382;-25.924;28.194;2023-07-29T08:41:48;85216.81;;;27.28;15.19
40948;BME280;49382;-25.924;28.194;2023-07-29T08:44:11;85220.44;;;27.20;15.50
40948;BME280;49382;-25.924;28.194;2023-07-29T08:46:36;85216.09;;;27.76;15.29
40948;BME280;49382;-25.924;28.194;2023-07-29T08:49:01;85213.75;;;26.69;15.73
40948;BME280;49382;-25.924;28.194;2023-07-29T08:51:27;85214.89;;;26.28;16.66
40948;BME280;49382;-25.924;28.194;2023-07-29T08:53:52;85212.33;;;27.15;17.34
40948;BME280;49382;-25.924;28.194;2023-07-29T08:56:17;85206.73;;;26.07;16.39
40948;BME280;49382;-25.924;28.194;2023-07-29T08:58:43;85197.34;;;26.15;16.78
40948;BME280;49382;-25.924;28.194;2023-07-29T09:01:08;85204.00;;;26.64;16.62
40948;BME280;49382;-25.924;28.194;2023-07-29T09:03:34;85199.96;;;25.73;17.97
40948;BME280;49382;-25.924;28.194;2023-07-29T09:06:00;85197.69;;;25.51;17.75
40948;BME280;49382;-25.924;28.194;2023-07-29T09:08:26;85195.19;;;26.45;17.09
40948;BME280;49382;-25.924;28.194;2023-07-29T09:10:51;85186.58;;;26.18;17.20
40948;BME280;49382;-25.924;28.194;2023-07-29T09:13:16;85180.13;;;25.74;16.98
40948;BME280;49382;-25.924;28.194;2023-07-29T09:15:42;85173.43;;;25.52;17.28
40948;BME280;49382;-25.924;28.194;2023-07-29T09:18:12;85166.56;;;24.88;17.73
40948;BME280;49382;-25.924;28.194;2023-07-29T09:20:34;85165.94;;;24.45;18.60
40948;BME280;49382;-25.924;28.194;2023-07-29T09:22:59;85170.55;;;26.48;17.53
40948;BME280;49382;-25.924;28.194;2023-07-29T09:25:25;85152.62;;;25.00;18.19
40948;BME280;49382;-25.924;28.194;2023-07-29T09:27:49;85146.56;;;24.19;18.66
40948;BME280;49382;-25.924;28.194;2023-07-29T09:30:17;85142.28;;;24.19;18.95
40948;BME280;49382;-25.924;28.194;2023-07-29T09:32:42;85135.70;;;24.66;19.14
40948;BME280;49382;-25.924;28.194;2023-07-29T09:35:11;85129.35;;;24.61;18.93
40948;BME280;49382;-25.924;28.194;2023-07-29T09:37:32;85123.07;;;24.08;18.94
40948;BME280;49382;-25.924;28.194;2023-07-29T09:39:58;85125.78;;;25.34;18.29
40948;BME280;49382;-25.924;28.194;2023-07-29T09:42:24;85116.08;;;23.64;19.35
40948;BME280;49382;-25.924;28.194;2023-07-29T09:44:50;85111.11;;;24.22;19.17
40948;BME280;49382;-25.924;28.194;2023-07-29T09:47:20;85110.86;;;23.87;19.76
40948;BME280;49382;-25.924;28.194;2023-07-29T09:49:42;85103.42;;;23.50;20.09
40948;BME280;49382;-25.924;28.194;2023-07-29T09:52:09;85102.27;;;23.80;19.85
40948;BME280;49382;-25.924;28.194;2023-07-29T09:54:33;85091.12;;;23.65;19.86
40948;BME280;49382;-25.924;28.194;2023-07-29T09:56:58;85086.72;;;23.43;20.54
40948;BME280;49382;-25.924;28.194;2023-07-29T09:59:24;85081.20;;;23.42;20.42
40948;BME280;49382;-25.924;28.194;2023-07-29T10:01:50;85071.14;;;23.90;20.24
40948;BME280;49382;-25.924;28.194;2023-07-29T10:04:15;85064.09;;;22.66;20.31
40948;BME280;49382;-25.924;28.194;2023-07-29T10:06:42;85064.35;;;23.01;20.86
40948;BME280;49382;-25.924;28.194;2023-07-29T10:09:06;85068.89;;;22.39;20.75
40948;BME280;49382;-25.924;28.194;2023-07-29T10:11:31;85055.79;;;22.73;21.14
40948;BME280;49382;-25.924;28.194;2023-07-29T10:13:57;85053.78;;;22.41;21.10
40948;BME280;49382;-25.924;28.194;2023-07-29T10:16:23;85052.34;;;22.76;20.90
40948;BME280;49382;-25.924;28.194;2023-07-29T10:18:48;85046.92;;;23.02;19.70
40948;BME280;49382;-25.924;28.194;2023-07-29T10:21:14;85032.91;;;21.83;21.08
40948;BME280;49382;-25.924;28.194;2023-07-29T10:23:43;85030.74;;;22.91;21.22
40948;BME280;49382;-25.924;28.194;2023-07-29T10:26:05;85020.61;;;22.63;20.89
40948;BME280;49382;-25.924;28.194;2023-07-29T10:28:31;85020.56;;;22.80;20.67
40948;BME280;49382;-25.924;28.194;2023-07-29T10:30:55;85016.24;;;22.51;20.80
40948;BME280;49382;-25.924;28.194;2023-07-29T10:33:20;85008.09;;;22.53;20.77
40948;BME280;49382;-25.924;28.194;2023-07-29T10:35:46;84995.81;;;22.39;21.53
40948;BME280;49382;-25.924;28.194;2023-07-29T10:38:11;84980.21;;;22.57;21.26
40948;BME280;49382;-25.924;28.194;2023-07-29T10:40:45;84986.55;;;22.10;20.90
40948;BME280;49382;-25.924;28.194;2023-07-29T10:43:10;84979.11;;;22.39;20.61
40948;BME280;49382;-25.924;28.194;2023-07-29T10:45:36;84976.31;;;21.68;21.32
40948;BME280;49382;-25.924;28.194;2023-07-29T10:47:53;84964.63;;;22.87;20.76
40948;BME280;49382;-25.924;28.194;2023-07-29T10:50:20;84957.53;;;21.80;21.57
40948;BME280;49382;-25.924;28.194;2023-07-29T10:52:46;84956.01;;;22.76;21.07
40948;BME280;49382;-25.924;28.194;2023-07-29T10:57:37;84945.08;;;22.82;19.72
40948;BME280;49382;-25.924;28.194;2023-07-29T11:00:01;84941.45;;;21.92;21.14
40948;BME280;49382;-25.924;28.194;2023-07-29T11:02:31;84943.72;;;22.36;21.02
40948;BME280;49382;-25.924;28.194;2023-07-29T11:04:52;84936.27;;;22.56;20.73
40948;BME280;49382;-25.924;28.194;2023-07-29T11:07:22;84922.68;;;21.80;21.67
40948;BME280;49382;-25.924;28.194;2023-07-29T11:09:51;84922.16;;;22.03;22.17
40948;BME280;49382;-25.924;28.194;2023-07-29T11:14:33;84911.86;;;22.52;21.31
40948;BME280;49382;-25.924;28.194;2023-07-29T11:16:59;84898.46;;;21.95;21.51
40948;BME280;49382;-25.924;28.194;2023-07-29T11:19:24;84894.18;;;22.78;20.85
40948;BME280;49382;-25.924;28.194;2023-07-29T11:21:49;84883.57;;;22.23;20.55
40948;BME280;49382;-25.924;28.194;2023-07-29T11:24:18;84878.36;;;22.43;20.75
40948;BME280;49382;-25.924;28.194;2023-07-29T11:26:46;84877.64;;;22.35;20.37
40948;BME280;49382;-25.924;28.194;2023-07-29T11:29:06;84873.26;;;22.25;20.75
40948;BME280;49382;-25.924;28.194;2023-07-29T11:33:56;84873.50;;;22.93;20.21
40948;BME280;49382;-25.924;28.194;2023-07-29T11:36:21;84870.10;;;22.70;20.18
40948;BME280;49382;-25.924;28.194;2023-07-29T11:38:47;84857.69;;;22.49;20.21
40948;BME280;49382;-25.924;28.194;2023-07-29T11:41:12;84854.44;;;22.74;20.13
40948;BME280;49382;-25.924;28.194;2023-07-29T11:43:37;84854.34;;;22.18;20.26
40948;BME280;49382;-25.924;28.194;2023-07-29T11:46:03;84857.59;;;22.32;20.08
40948;BME280;49382;-25.924;28.194;2023-07-29T11:48:31;84848.05;;;22.45;19.83
40948;BME280;49382;-25.924;28.194;2023-07-29T11:50:55;84851.19;;;21.73;20.49
40948;BME280;49382;-25.924;28.194;2023-07-29T11:53:20;84859.24;;;21.76;20.45
40948;BME280;49382;-25.924;28.194;2023-07-29T11:55:51;84845.50;;;21.89;20.95
40948;BME280;49382;-25.924;28.194;2023-07-29T11:58:11;84842.29;;;21.67;20.70
40948;BME280;49382;-25.924;28.194;2023-07-29T12:00:38;84843.57;;;21.27;20.55
40948;BME280;49382;-25.924;28.194;2023-07-29T12:03:03;84831.69;;;21.80;20.57
40948;BME280;49382;-25.924;28.194;2023-07-29T12:05:29;84820.52;;;22.22;20.12
40948;BME280;49382;-25.924;28.194;2023-07-29T12:07:55;84819.81;;;21.73;20.68
40948;BME280;49382;-25.924;28.194;2023-07-29T12:10:20;84822.33;;;21.69;20.56
40948;BME280;49382;-25.924;28.194;2023-07-29T12:12:47;84824.10;;;22.43;19.95
40948;BME280;49382;-25.924;28.194;2023-07-29T12:15:12;84816.68;;;22.24;20.01
40948;BME280;49382;-25.924;28.194;2023-07-29T12:17:41;84812.55;;;21.78;20.43
40948;BME280;49382;-25.924;28.194;2023-07-29T12:20:04;84819.58;;;22.02;20.63
40948;BME280;49382;-25.924;28.194;2023-07-29T12:22:29;84817.78;;;21.74;20.53
40948;BME280;49382;-25.924;28.194;2023-07-29T12:24:55;84811.70;;;21.23;21.13
40948;BME280;49382;-25.924;28.194;2023-07-29T12:27:22;84805.30;;;21.02;20.97
40948;BME280;49382;-25.924;28.194;2023-07-29T12:29:47;84807.02;;;22.07;20.30
40948;BME280;49382;-25.924;28.194;2023-07-29T12:32:13;84805.77;;;21.75;20.81
40948;BME280;49382;-25.924;28.194;2023-07-29T12:34:39;84804.20;;;21.60;20.60
40948;BME280;49382;-25.924;28.194;2023-07-29T12:37:05;84801.87;;;21.38;20.84